sensor_id;sensor_type;location;lat;lon;timestamp;temperature;humidity
3186;DHT22;1604;53.700;10.252;2023-03-24T00:01:35;10.00;99.90
3186;DHT22;1604;53.700;10.252;2023-03-24T00:04:38;10.10;99.90
3186;DHT22;1604;53.700;10.252;2023-03-24T00:07:42;10.10;99.90
3186;DHT22;1604;53.700;10.252;2023-03-24T00:10:44;10.10;99.90
3186;DHT22;1604;53.700;10.252;2023-03-24T00:13:47;10.20;99.90
3186;DHT22;1604;53.700;10.252;2023-03-24T00:16:49;10.30;99.90
3186;DHT22;1604;53.700;10.252;2023-03-24T00:19:53;10.30;99.90
3186;DHT22;1604;53.700;10.252;2023-03-24T00:22:57;10.40;99.90
3186;DHT22;1604;53.700;10.252;2023-03-24T00:26:00;10.30;99.90
3186;DHT22;1604;53.700;10.252;2023-03-24T00:29:04;10.40;99.90
3186;DHT22;1604;53.700;10.252;2023-03-24T00:32:06;10.40;99.90
3186;DHT22;1604;53.700;10.252;2023-03-24T00:35:11;10.50;99.90
3186;DHT22;1604;53.700;10.252;2023-03-24T00:38:14;10.50;99.90
3186;DHT22;1604;53.700;10.252;2023-03-24T00:41:17;10.50;99.90
3186;DHT22;1604;53.700;10.252;2023-03-24T00:44:19;10.50;99.90
3186;DHT22;1604;53.700;10.252;2023-03-24T00:47:21;10.60;99.90
3186;DHT22;1604;53.700;10.252;2023-03-24T00:50:27;10.50;99.90
3186;DHT22;1604;53.700;10.252;2023-03-24T00:53:33;10.50;99.90
3186;DHT22;1604;53.700;10.252;2023-03-24T00:56:37;10.50;99.90
3186;DHT22;1604;53.700;10.252;2023-03-24T00:59:40;10.40;99.90
3186;DHT22;1604;53.700;10.252;2023-03-24T01:02:49;10.40;99.90
3186;DHT22;1604;53.700;10.252;2023-03-24T01:05:58;10.40;99.90
3186;DHT22;1604;53.700;10.252;2023-03-24T01:09:01;10.40;99.90
3186;DHT22;1604;53.700;10.252;2023-03-24T01:12:04;10.40;99.90
3186;DHT22;1604;53.700;10.252;2023-03-24T01:15:12;10.30;99.90
3186;DHT22;1604;53.700;10.252;2023-03-24T01:18:14;10.30;99.90
3186;DHT22;1604;53.700;10.252;2023-03-24T01:21:18;10.40;99.90
3186;DHT22;1604;53.700;10.252;2023-03-24T01:24:21;10.30;99.90
3186;DHT22;1604;53.700;10.252;2023-03-24T01:27:25;10.40;99.90
3186;DHT22;1604;53.700;10.252;2023-03-24T01:30:28;10.40;99.90
3186;DHT22;1604;53.700;10.252;2023-03-24T01:33:30;10.30;99.90
3186;DHT22;1604;53.700;10.252;2023-03-24T01:36:34;10.30;99.90
3186;DHT22;1604;53.700;10.252;2023-03-24T01:39:36;10.30;99.90
3186;DHT22;1604;53.700;10.252;2023-03-24T01:42:38;10.30;99.90
3186;DHT22;1604;53.700;10.252;2023-03-24T01:45:54;10.20;99.90
3186;DHT22;1604;53.700;10.252;2023-03-24T01:49:00;10.20;99.90
3186;DHT22;1604;53.700;10.252;2023-03-24T01:52:08;10.30;99.90
3186;DHT22;1604;53.700;10.252;2023-03-24T01:55:14;10.20;99.90
3186;DHT22;1604;53.700;10.252;2023-03-24T01:58:19;10.20;99.90
3186;DHT22;1604;53.700;10.252;2023-03-24T02:01:21;10.20;99.90
3186;DHT22;1604;53.700;10.252;2023-03-24T02:04:25;10.20;99.90
3186;DHT22;1604;53.700;10.252;2023-03-24T02:07:32;10.20;99.90
3186;DHT22;1604;53.700;10.252;2023-03-24T02:10:35;10.20;99.90
3186;DHT22;1604;53.700;10.252;2023-03-24T02:13:37;10.10;99.90
3186;DHT22;1604;53.700;10.252;2023-03-24T02:16:53;10.20;99.90
3186;DHT22;1604;53.700;10.252;2023-03-24T02:24:00;10.10;99.90
3186;DHT22;1604;53.700;10.252;2023-03-24T02:27:22;10.10;99.90
3186;DHT22;1604;53.700;10.252;2023-03-24T02:30:43;10.10;99.90
3186;DHT22;1604;53.700;10.252;2023-03-24T02:38:01;10.00;99.90
3186;DHT22;1604;53.700;10.252;2023-03-24T02:41:15;10.10;99.90
3186;DHT22;1604;53.700;10.252;2023-03-24T02:44:20;10.10;99.90
3186;DHT22;1604;53.700;10.252;2023-03-24T02:47:32;10.10;99.90
3186;DHT22;1604;53.700;10.252;2023-03-24T02:50:41;10.10;99.90
3186;DHT22;1604;53.700;10.252;2023-03-24T02:53:53;10.10;99.90
3186;DHT22;1604;53.700;10.252;2023-03-24T02:57:01;10.10;99.90
3186;DHT22;1604;53.700;10.252;2023-03-24T03:00:08;10.10;99.90
3186;DHT22;1604;53.700;10.252;2023-03-24T03:03:17;10.10;99.90
3186;DHT22;1604;53.700;10.252;2023-03-24T03:06:24;10.10;99.90
3186;DHT22;1604;53.700;10.252;2023-03-24T03:09:28;10.00;99.90
3186;DHT22;1604;53.700;10.252;2023-03-24T03:12:33;10.00;99.90
3186;DHT22;1604;53.700;10.252;2023-03-24T03:15:40;10.10;99.90
3186;DHT22;1604;53.700;10.252;2023-03-24T03:18:48;10.10;99.90
3186;DHT22;1604;53.700;10.252;2023-03-24T03:21:51;10.10;99.90
3186;DHT22;1604;53.700;10.252;2023-03-24T03:24:56;10.10;99.90
3186;DHT22;1604;53.700;10.252;2023-03-24T03:28:05;10.10;99.90
3186;DHT22;1604;53.700;10.252;2023-03-24T03:31:12;10.20;99.90
3186;DHT22;1604;53.700;10.252;2023-03-24T03:34:19;10.20;99.90
3186;DHT22;1604;53.700;10.252;2023-03-24T03:37:29;10.10;99.90
3186;DHT22;1604;53.700;10.252;2023-03-24T03:40:36;10.20;99.90
3186;DHT22;1604;53.700;10.252;2023-03-24T03:43:40;10.20;99.90
3186;DHT22;1604;53.700;10.252;2023-03-24T03:46:42;10.20;99.90
3186;DHT22;1604;53.700;10.252;2023-03-24T03:49:44;10.20;99.90
3186;DHT22;1604;53.700;10.252;2023-03-24T03:52:47;10.20;99.90
3186;DHT22;1604;53.700;10.252;2023-03-24T03:55:49;10.20;99.90
3186;DHT22;1604;53.700;10.252;2023-03-24T03:58:53;10.20;99.90
3186;DHT22;1604;53.700;10.252;2023-03-24T04:01:56;10.20;99.90
3186;DHT22;1604;53.700;10.252;2023-03-24T04:05:18;10.20;99.90
3186;DHT22;1604;53.700;10.252;2023-03-24T04:08:25;10.20;99.90
3186;DHT22;1604;53.700;10.252;2023-03-24T04:11:45;10.10;99.90
3186;DHT22;1604;53.700;10.252;2023-03-24T04:18:48;10.20;99.90
3186;DHT22;1604;53.700;10.252;2023-03-24T04:22:03;10.20;99.90
3186;DHT22;1604;53.700;10.252;2023-03-24T04:25:16;10.20;99.90
3186;DHT22;1604;53.700;10.252;2023-03-24T04:28:25;10.30;99.90
3186;DHT22;1604;53.700;10.252;2023-03-24T04:31:33;10.30;99.90
3186;DHT22;1604;53.700;10.252;2023-03-24T04:34:38;10.40;99.90
3186;DHT22;1604;53.700;10.252;2023-03-24T04:37:42;10.40;99.90
3186;DHT22;1604;53.700;10.252;2023-03-24T04:40:45;10.40;99.90
3186;DHT22;1604;53.700;10.252;2023-03-24T04:43:49;10.40;99.90
3186;DHT22;1604;53.700;10.252;2023-03-24T04:46:55;10.50;99.90
3186;DHT22;1604;53.700;10.252;2023-03-24T04:50:00;10.50;99.90
3186;DHT22;1604;53.700;10.252;2023-03-24T04:53:02;10.60;99.90
3186;DHT22;1604;53.700;10.252;2023-03-24T04:56:23;10.60;99.90
3186;DHT22;1604;53.700;10.252;2023-03-24T04:59:27;10.70;99.90
3186;DHT22;1604;53.700;10.252;2023-03-24T05:02:30;10.60;99.90
3186;DHT22;1604;53.700;10.252;2023-03-24T05:05:32;10.60;99.90
3186;DHT22;1604;53.700;10.252;2023-03-24T05:08:34;10.70;99.90
3186;DHT22;1604;53.700;10.252;2023-03-24T05:11:36;10.70;99.90
3186;DHT22;1604;53.700;10.252;2023-03-24T05:14:38;10.80;99.90
3186;DHT22;1604;53.700;10.252;2023-03-24T05:17:41;10.80;99.90
3186;DHT22;1604;53.700;10.252;2023-03-24T05:20:43;10.80;99.90
3186;DHT22;1604;53.700;10.252;2023-03-24T05:23:45;10.80;99.90
3186;DHT22;1604;53.700;10.252;2023-03-24T05:26:47;10.80;99.90
3186;DHT22;1604;53.700;10.252;2023-03-24T05:29:49;10.80;99.90
3186;DHT22;1604;53.700;10.252;2023-03-24T05:32:52;10.80;99.90
3186;DHT22;1604;53.700;10.252;2023-03-24T05:35:54;10.80;99.90
3186;DHT22;1604;53.700;10.252;2023-03-24T05:38:56;10.80;99.90
3186;DHT22;1604;53.700;10.252;2023-03-24T05:41:58;10.80;99.90
3186;DHT22;1604;53.700;10.252;2023-03-24T05:45:00;10.80;99.90
3186;DHT22;1604;53.700;10.252;2023-03-24T05:48:04;10.80;99.90
3186;DHT22;1604;53.700;10.252;2023-03-24T05:51:07;10.80;99.90
3186;DHT22;1604;53.700;10.252;2023-03-24T05:54:09;10.80;99.90
3186;DHT22;1604;53.700;10.252;2023-03-24T05:57:12;10.90;99.90
3186;DHT22;1604;53.700;10.252;2023-03-24T06:00:15;10.90;99.90
3186;DHT22;1604;53.700;10.252;2023-03-24T06:03:19;10.90;99.90
3186;DHT22;1604;53.700;10.252;2023-03-24T06:06:21;10.90;99.90
3186;DHT22;1604;53.700;10.252;2023-03-24T06:09:23;10.90;99.90
3186;DHT22;1604;53.700;10.252;2023-03-24T06:12:25;10.90;99.90
3186;DHT22;1604;53.700;10.252;2023-03-24T06:15:27;10.90;99.90
3186;DHT22;1604;53.700;10.252;2023-03-24T06:18:31;11.00;99.90
3186;DHT22;1604;53.700;10.252;2023-03-24T06:21:33;11.00;99.90
3186;DHT22;1604;53.700;10.252;2023-03-24T06:24:36;11.00;99.90
3186;DHT22;1604;53.700;10.252;2023-03-24T06:27:41;11.00;99.90
3186;DHT22;1604;53.700;10.252;2023-03-24T06:30:46;11.00;99.90
3186;DHT22;1604;53.700;10.252;2023-03-24T06:33:50;11.10;99.90
3186;DHT22;1604;53.700;10.252;2023-03-24T06:36:52;11.10;99.90
3186;DHT22;1604;53.700;10.252;2023-03-24T06:39:54;11.10;99.90
3186;DHT22;1604;53.700;10.252;2023-03-24T06:42:56;11.10;99.90
3186;DHT22;1604;53.700;10.252;2023-03-24T06:45:58;11.10;99.90
3186;DHT22;1604;53.700;10.252;2023-03-24T06:49:02;11.20;99.90
3186;DHT22;1604;53.700;10.252;2023-03-24T06:52:04;11.20;99.90
3186;DHT22;1604;53.700;10.252;2023-03-24T06:55:07;11.20;99.90
3186;DHT22;1604;53.700;10.252;2023-03-24T06:58:09;11.20;99.90
3186;DHT22;1604;53.700;10.252;2023-03-24T07:01:11;11.20;99.90
3186;DHT22;1604;53.700;10.252;2023-03-24T07:04:15;11.20;99.90
3186;DHT22;1604;53.700;10.252;2023-03-24T07:07:17;11.20;99.90
3186;DHT22;1604;53.700;10.252;2023-03-24T07:10:21;11.30;99.90
3186;DHT22;1604;53.700;10.252;2023-03-24T07:13:24;11.20;99.90
3186;DHT22;1604;53.700;10.252;2023-03-24T07:16:26;11.30;99.90
3186;DHT22;1604;53.700;10.252;2023-03-24T07:19:29;11.30;99.90
3186;DHT22;1604;53.700;10.252;2023-03-24T07:22:32;11.40;99.90
3186;DHT22;1604;53.700;10.252;2023-03-24T07:25:35;11.50;99.90
3186;DHT22;1604;53.700;10.252;2023-03-24T07:28:37;11.50;99.90
3186;DHT22;1604;53.700;10.252;2023-03-24T07:31:39;11.60;99.90
3186;DHT22;1604;53.700;10.252;2023-03-24T07:34:42;11.60;99.90
3186;DHT22;1604;53.700;10.252;2023-03-24T07:37:45;11.50;99.90
3186;DHT22;1604;53.700;10.252;2023-03-24T07:40:47;11.50;99.90
3186;DHT22;1604;53.700;10.252;2023-03-24T07:43:50;11.50;99.90
3186;DHT22;1604;53.700;10.252;2023-03-24T07:46:52;11.50;99.90
3186;DHT22;1604;53.700;10.252;2023-03-24T07:49:55;11.60;99.90
3186;DHT22;1604;53.700;10.252;2023-03-24T07:52:57;11.70;99.90
3186;DHT22;1604;53.700;10.252;2023-03-24T07:55:59;11.70;99.90
3186;DHT22;1604;53.700;10.252;2023-03-24T07:59:01;11.70;99.90
3186;DHT22;1604;53.700;10.252;2023-03-24T08:02:03;11.70;99.90
3186;DHT22;1604;53.700;10.252;2023-03-24T08:05:08;11.70;99.90
3186;DHT22;1604;53.700;10.252;2023-03-24T08:08:10;11.70;99.90
3186;DHT22;1604;53.700;10.252;2023-03-24T08:11:12;11.70;99.90
3186;DHT22;1604;53.700;10.252;2023-03-24T08:14:14;11.80;99.90
3186;DHT22;1604;53.700;10.252;2023-03-24T08:17:16;12.00;99.90
3186;DHT22;1604;53.700;10.252;2023-03-24T08:20:20;12.10;99.90
3186;DHT22;1604;53.700;10.252;2023-03-24T08:23:24;12.20;99.90
3186;DHT22;1604;53.700;10.252;2023-03-24T08:26:26;12.30;99.90
3186;DHT22;1604;53.700;10.252;2023-03-24T08:29:34;12.30;99.90
3186;DHT22;1604;53.700;10.252;2023-03-24T08:32:39;12.50;99.90
3186;DHT22;1604;53.700;10.252;2023-03-24T08:35:45;12.50;99.90
3186;DHT22;1604;53.700;10.252;2023-03-24T08:38:47;12.60;99.90
3186;DHT22;1604;53.700;10.252;2023-03-24T08:41:51;12.70;99.90
3186;DHT22;1604;53.700;10.252;2023-03-24T08:44:54;12.80;99.90
3186;DHT22;1604;53.700;10.252;2023-03-24T08:47:57;12.80;99.90
3186;DHT22;1604;53.700;10.252;2023-03-24T08:51:09;12.70;99.90
3186;DHT22;1604;53.700;10.252;2023-03-24T08:54:11;12.80;99.90
3186;DHT22;1604;53.700;10.252;2023-03-24T08:57:13;12.80;99.90
3186;DHT22;1604;53.700;10.252;2023-03-24T09:00:18;12.90;99.90
3186;DHT22;1604;53.700;10.252;2023-03-24T09:03:20;13.00;99.00
3186;DHT22;1604;53.700;10.252;2023-03-24T09:06:23;12.90;98.40
3186;DHT22;1604;53.700;10.252;2023-03-24T09:09:26;12.70;98.80
3186;DHT22;1604;53.700;10.252;2023-03-24T09:12:28;12.50;99.00
3186;DHT22;1604;53.700;10.252;2023-03-24T09:15:30;12.40;98.90
3186;DHT22;1604;53.700;10.252;2023-03-24T09:18:32;12.30;98.90
3186;DHT22;1604;53.700;10.252;2023-03-24T09:21:36;12.20;99.40
3186;DHT22;1604;53.700;10.252;2023-03-24T09:24:38;12.20;99.80
3186;DHT22;1604;53.700;10.252;2023-03-24T09:27:40;12.20;99.60
3186;DHT22;1604;53.700;10.252;2023-03-24T09:30:42;12.20;99.80
3186;DHT22;1604;53.700;10.252;2023-03-24T09:33:45;12.20;99.90
3186;DHT22;1604;53.700;10.252;2023-03-24T09:36:48;12.20;99.90
3186;DHT22;1604;53.700;10.252;2023-03-24T09:39:50;12.40;99.20
3186;DHT22;1604;53.700;10.252;2023-03-24T09:42:58;12.60;98.10
3186;DHT22;1604;53.700;10.252;2023-03-24T09:46:03;12.60;97.30
3186;DHT22;1604;53.700;10.252;2023-03-24T09:49:06;12.50;98.00
3186;DHT22;1604;53.700;10.252;2023-03-24T09:52:20;12.40;98.30
3186;DHT22;1604;53.700;10.252;2023-03-24T09:55:25;12.40;98.20
3186;DHT22;1604;53.700;10.252;2023-03-24T09:58:28;12.30;98.60
3186;DHT22;1604;53.700;10.252;2023-03-24T10:01:33;12.30;98.30
3186;DHT22;1604;53.700;10.252;2023-03-24T10:04:35;12.30;98.50
3186;DHT22;1604;53.700;10.252;2023-03-24T10:07:44;12.30;98.90
3186;DHT22;1604;53.700;10.252;2023-03-24T10:10:55;12.30;99.50
3186;DHT22;1604;53.700;10.252;2023-03-24T10:14:07;12.40;98.70
3186;DHT22;1604;53.700;10.252;2023-03-24T10:17:18;12.40;98.70
3186;DHT22;1604;53.700;10.252;2023-03-24T10:20:30;12.50;98.60
3186;DHT22;1604;53.700;10.252;2023-03-24T10:23:40;12.50;97.80
3186;DHT22;1604;53.700;10.252;2023-03-24T10:26:48;12.50;98.10
3186;DHT22;1604;53.700;10.252;2023-03-24T10:29:53;12.40;98.60
3186;DHT22;1604;53.700;10.252;2023-03-24T10:33:01;12.60;98.30
3186;DHT22;1604;53.700;10.252;2023-03-24T10:36:07;12.60;98.50
3186;DHT22;1604;53.700;10.252;2023-03-24T10:39:15;12.70;98.00
3186;DHT22;1604;53.700;10.252;2023-03-24T10:42:18;12.80;97.90
3186;DHT22;1604;53.700;10.252;2023-03-24T10:45:25;12.80;97.70
3186;DHT22;1604;53.700;10.252;2023-03-24T10:48:43;12.90;97.10
3186;DHT22;1604;53.700;10.252;2023-03-24T10:51:46;12.80;97.40
3186;DHT22;1604;53.700;10.252;2023-03-24T10:54:58;13.00;97.30
3186;DHT22;1604;53.700;10.252;2023-03-24T10:58:05;13.10;97.60
3186;DHT22;1604;53.700;10.252;2023-03-24T11:01:26;13.20;97.10
3186;DHT22;1604;53.700;10.252;2023-03-24T11:04:30;13.40;96.20
3186;DHT22;1604;53.700;10.252;2023-03-24T11:07:34;13.30;93.90
3186;DHT22;1604;53.700;10.252;2023-03-24T11:10:39;13.20;95.40
3186;DHT22;1604;53.700;10.252;2023-03-24T11:13:53;13.20;94.80
3186;DHT22;1604;53.700;10.252;2023-03-24T11:17:08;13.20;94.20
3186;DHT22;1604;53.700;10.252;2023-03-24T11:20:16;13.20;94.70
3186;DHT22;1604;53.700;10.252;2023-03-24T11:23:25;13.20;94.30
3186;DHT22;1604;53.700;10.252;2023-03-24T11:26:30;13.20;93.80
3186;DHT22;1604;53.700;10.252;2023-03-24T11:29:37;13.20;95.10
3186;DHT22;1604;53.700;10.252;2023-03-24T11:32:44;13.20;96.30
3186;DHT22;1604;53.700;10.252;2023-03-24T11:35:47;13.50;95.40
3186;DHT22;1604;53.700;10.252;2023-03-24T11:38:57;13.80;94.20
3186;DHT22;1604;53.700;10.252;2023-03-24T11:42:15;14.00;93.30
3186;DHT22;1604;53.700;10.252;2023-03-24T11:45:33;13.90;89.50
3186;DHT22;1604;53.700;10.252;2023-03-24T11:48:39;13.80;89.80
3186;DHT22;1604;53.700;10.252;2023-03-24T11:51:47;13.90;91.30
3186;DHT22;1604;53.700;10.252;2023-03-24T11:54:50;14.00;89.80
3186;DHT22;1604;53.700;10.252;2023-03-24T11:57:56;14.20;88.90
3186;DHT22;1604;53.700;10.252;2023-03-24T12:01:03;14.40;87.30
3186;DHT22;1604;53.700;10.252;2023-03-24T12:04:19;14.70;89.20
3186;DHT22;1604;53.700;10.252;2023-03-24T12:07:43;15.00;84.90
3186;DHT22;1604;53.700;10.252;2023-03-24T12:10:59;15.20;81.30
3186;DHT22;1604;53.700;10.252;2023-03-24T12:14:07;15.30;81.60
3186;DHT22;1604;53.700;10.252;2023-03-24T12:17:13;15.40;76.70
3186;DHT22;1604;53.700;10.252;2023-03-24T12:20:21;15.50;77.20
3186;DHT22;1604;53.700;10.252;2023-03-24T12:23:30;15.60;76.40
3186;DHT22;1604;53.700;10.252;2023-03-24T12:26:33;15.70;75.80
3186;DHT22;1604;53.700;10.252;2023-03-24T12:29:46;15.50;76.60
3186;DHT22;1604;53.700;10.252;2023-03-24T12:33:05;15.40;77.60
3186;DHT22;1604;53.700;10.252;2023-03-24T12:36:36;15.20;79.80
3186;DHT22;1604;53.700;10.252;2023-03-24T12:39:50;15.10;78.20
3186;DHT22;1604;53.700;10.252;2023-03-24T12:42:59;14.80;81.60
3186;DHT22;1604;53.700;10.252;2023-03-24T12:46:22;14.70;83.10
3186;DHT22;1604;53.700;10.252;2023-03-24T12:49:44;14.60;83.20
3186;DHT22;1604;53.700;10.252;2023-03-24T12:53:09;14.60;84.00
3186;DHT22;1604;53.700;10.252;2023-03-24T12:56:17;14.60;84.30
3186;DHT22;1604;53.700;10.252;2023-03-24T12:59:29;14.60;84.90
3186;DHT22;1604;53.700;10.252;2023-03-24T13:02:40;14.80;86.60
3186;DHT22;1604;53.700;10.252;2023-03-24T13:05:46;14.90;85.20
3186;DHT22;1604;53.700;10.252;2023-03-24T13:09:01;14.80;85.70
3186;DHT22;1604;53.700;10.252;2023-03-24T13:12:12;14.80;84.70
3186;DHT22;1604;53.700;10.252;2023-03-24T13:15:18;14.70;84.40
3186;DHT22;1604;53.700;10.252;2023-03-24T13:18:28;14.50;85.60
3186;DHT22;1604;53.700;10.252;2023-03-24T13:21:31;14.40;83.30
3186;DHT22;1604;53.700;10.252;2023-03-24T13:24:34;14.30;84.60
3186;DHT22;1604;53.700;10.252;2023-03-24T13:27:39;14.10;84.30
3186;DHT22;1604;53.700;10.252;2023-03-24T13:30:42;14.00;84.70
3186;DHT22;1604;53.700;10.252;2023-03-24T13:33:50;13.90;85.80
3186;DHT22;1604;53.700;10.252;2023-03-24T13:36:59;13.80;85.90
3186;DHT22;1604;53.700;10.252;2023-03-24T13:40:09;14.00;84.80
3186;DHT22;1604;53.700;10.252;2023-03-24T13:43:18;14.20;83.10
3186;DHT22;1604;53.700;10.252;2023-03-24T13:46:27;14.30;82.20
3186;DHT22;1604;53.700;10.252;2023-03-24T13:49:31;14.40;80.80
3186;DHT22;1604;53.700;10.252;2023-03-24T13:52:36;14.60;75.30
3186;DHT22;1604;53.700;10.252;2023-03-24T13:55:47;14.80;74.20
3186;DHT22;1604;53.700;10.252;2023-03-24T13:59:07;14.90;72.50
3186;DHT22;1604;53.700;10.252;2023-03-24T14:02:40;15.10;71.90
3186;DHT22;1604;53.700;10.252;2023-03-24T14:06:02;15.30;69.70
3186;DHT22;1604;53.700;10.252;2023-03-24T14:09:15;15.40;70.10
3186;DHT22;1604;53.700;10.252;2023-03-24T14:12:19;15.50;64.20
3186;DHT22;1604;53.700;10.252;2023-03-24T14:15:28;15.50;65.00
3186;DHT22;1604;53.700;10.252;2023-03-24T14:18:41;15.40;65.60
3186;DHT22;1604;53.700;10.252;2023-03-24T14:21:56;15.30;63.80
3186;DHT22;1604;53.700;10.252;2023-03-24T14:24:59;15.00;64.00
3186;DHT22;1604;53.700;10.252;2023-03-24T14:28:20;14.90;64.30
3186;DHT22;1604;53.700;10.252;2023-03-24T14:31:27;14.70;66.20
3186;DHT22;1604;53.700;10.252;2023-03-24T14:34:33;14.70;65.80
3186;DHT22;1604;53.700;10.252;2023-03-24T14:37:48;14.70;65.50
3186;DHT22;1604;53.700;10.252;2023-03-24T14:40:55;14.70;66.10
3186;DHT22;1604;53.700;10.252;2023-03-24T14:43:59;14.80;66.40
3186;DHT22;1604;53.700;10.252;2023-03-24T14:47:04;14.80;70.10
3186;DHT22;1604;53.700;10.252;2023-03-24T14:50:15;14.90;71.30
3186;DHT22;1604;53.700;10.252;2023-03-24T14:53:21;14.90;69.70
3186;DHT22;1604;53.700;10.252;2023-03-24T14:56:34;14.80;70.70
3186;DHT22;1604;53.700;10.252;2023-03-24T14:59:43;14.80;70.30
3186;DHT22;1604;53.700;10.252;2023-03-24T15:02:49;14.70;71.00
3186;DHT22;1604;53.700;10.252;2023-03-24T15:05:51;14.70;70.40
3186;DHT22;1604;53.700;10.252;2023-03-24T15:08:56;14.60;70.60
3186;DHT22;1604;53.700;10.252;2023-03-24T15:12:00;14.50;71.60
3186;DHT22;1604;53.700;10.252;2023-03-24T15:15:03;14.40;71.30
3186;DHT22;1604;53.700;10.252;2023-03-24T15:18:05;14.30;72.70
3186;DHT22;1604;53.700;10.252;2023-03-24T15:21:21;14.20;71.50
3186;DHT22;1604;53.700;10.252;2023-03-24T15:24:29;14.10;71.40
3186;DHT22;1604;53.700;10.252;2023-03-24T15:27:31;14.10;71.80
3186;DHT22;1604;53.700;10.252;2023-03-24T15:30:33;14.20;71.10
3186;DHT22;1604;53.700;10.252;2023-03-24T15:33:39;14.20;70.50
3186;DHT22;1604;53.700;10.252;2023-03-24T15:36:41;14.20;70.40
3186;DHT22;1604;53.700;10.252;2023-03-24T15:39:48;14.30;69.60
3186;DHT22;1604;53.700;10.252;2023-03-24T15:42:52;14.30;67.00
3186;DHT22;1604;53.700;10.252;2023-03-24T15:45:56;14.30;66.50
3186;DHT22;1604;53.700;10.252;2023-03-24T15:48:59;14.10;66.50
3186;DHT22;1604;53.700;10.252;2023-03-24T15:52:28;14.10;66.40
3186;DHT22;1604;53.700;10.252;2023-03-24T15:55:34;14.00;67.20
3186;DHT22;1604;53.700;10.252;2023-03-24T15:58:48;14.00;68.20
3186;DHT22;1604;53.700;10.252;2023-03-24T16:01:50;13.90;65.80
3186;DHT22;1604;53.700;10.252;2023-03-24T16:04:57;13.90;65.90
3186;DHT22;1604;53.700;10.252;2023-03-24T16:08:03;13.90;65.90
3186;DHT22;1604;53.700;10.252;2023-03-24T16:11:10;13.90;66.80
3186;DHT22;1604;53.700;10.252;2023-03-24T16:14:20;13.90;67.20
3186;DHT22;1604;53.700;10.252;2023-03-24T16:17:25;13.80;68.00
3186;DHT22;1604;53.700;10.252;2023-03-24T16:20:27;13.80;67.40
3186;DHT22;1604;53.700;10.252;2023-03-24T16:23:30;13.70;68.70
3186;DHT22;1604;53.700;10.252;2023-03-24T16:26:33;13.70;68.90
3186;DHT22;1604;53.700;10.252;2023-03-24T16:29:35;13.50;68.50
3186;DHT22;1604;53.700;10.252;2023-03-24T16:32:37;13.40;68.80
3186;DHT22;1604;53.700;10.252;2023-03-24T16:35:40;13.40;69.00
3186;DHT22;1604;53.700;10.252;2023-03-24T16:38:43;13.30;70.20
3186;DHT22;1604;53.700;10.252;2023-03-24T16:41:47;13.20;70.40
3186;DHT22;1604;53.700;10.252;2023-03-24T16:44:49;13.20;71.00
3186;DHT22;1604;53.700;10.252;2023-03-24T16:47:51;13.20;71.30
3186;DHT22;1604;53.700;10.252;2023-03-24T16:50:53;13.10;71.30
3186;DHT22;1604;53.700;10.252;2023-03-24T16:53:57;13.10;72.30
3186;DHT22;1604;53.700;10.252;2023-03-24T16:57:02;13.00;72.40
3186;DHT22;1604;53.700;10.252;2023-03-24T17:00:08;13.00;73.00
3186;DHT22;1604;53.700;10.252;2023-03-24T17:03:14;13.00;73.60
3186;DHT22;1604;53.700;10.252;2023-03-24T17:06:20;12.90;73.80
3186;DHT22;1604;53.700;10.252;2023-03-24T17:09:24;12.90;74.50
3186;DHT22;1604;53.700;10.252;2023-03-24T17:12:31;12.80;75.60
3186;DHT22;1604;53.700;10.252;2023-03-24T17:15:36;12.80;76.30
3186;DHT22;1604;53.700;10.252;2023-03-24T17:18:41;12.80;76.70
3186;DHT22;1604;53.700;10.252;2023-03-24T17:21:46;12.80;78.00
3186;DHT22;1604;53.700;10.252;2023-03-24T17:24:49;12.80;79.30
3186;DHT22;1604;53.700;10.252;2023-03-24T17:27:58;12.80;80.10
3186;DHT22;1604;53.700;10.252;2023-03-24T17:31:00;12.70;81.60
3186;DHT22;1604;53.700;10.252;2023-03-24T17:34:02;12.70;82.10
3186;DHT22;1604;53.700;10.252;2023-03-24T17:37:04;12.60;82.70
3186;DHT22;1604;53.700;10.252;2023-03-24T17:40:07;12.60;84.00
3186;DHT22;1604;53.700;10.252;2023-03-24T17:43:11;12.50;84.70
3186;DHT22;1604;53.700;10.252;2023-03-24T17:46:16;12.50;85.00
3186;DHT22;1604;53.700;10.252;2023-03-24T17:49:21;12.40;85.40
3186;DHT22;1604;53.700;10.252;2023-03-24T17:52:23;12.40;86.10
3186;DHT22;1604;53.700;10.252;2023-03-24T17:55:25;12.30;86.80
3186;DHT22;1604;53.700;10.252;2023-03-24T17:58:28;12.30;87.00
3186;DHT22;1604;53.700;10.252;2023-03-24T18:01:31;12.30;87.80
3186;DHT22;1604;53.700;10.252;2023-03-24T18:04:34;12.20;89.10
3186;DHT22;1604;53.700;10.252;2023-03-24T18:07:37;12.30;89.90
3186;DHT22;1604;53.700;10.252;2023-03-24T18:10:39;12.20;90.80
3186;DHT22;1604;53.700;10.252;2023-03-24T18:13:42;12.10;92.10
3186;DHT22;1604;53.700;10.252;2023-03-24T18:16:44;12.10;92.80
3186;DHT22;1604;53.700;10.252;2023-03-24T18:19:46;12.00;93.50
3186;DHT22;1604;53.700;10.252;2023-03-24T18:22:49;11.90;94.20
3186;DHT22;1604;53.700;10.252;2023-03-24T18:25:56;11.90;94.90
3186;DHT22;1604;53.700;10.252;2023-03-24T18:29:00;11.80;95.40
3186;DHT22;1604;53.700;10.252;2023-03-24T18:32:02;11.70;95.90
3186;DHT22;1604;53.700;10.252;2023-03-24T18:35:05;11.60;96.40
3186;DHT22;1604;53.700;10.252;2023-03-24T18:38:07;11.60;96.40
3186;DHT22;1604;53.700;10.252;2023-03-24T18:41:09;11.50;96.70
3186;DHT22;1604;53.700;10.252;2023-03-24T18:44:14;11.50;97.00
3186;DHT22;1604;53.700;10.252;2023-03-24T18:47:16;11.40;97.50
3186;DHT22;1604;53.700;10.252;2023-03-24T18:50:19;11.50;97.30
3186;DHT22;1604;53.700;10.252;2023-03-24T18:53:21;11.40;97.40
3186;DHT22;1604;53.700;10.252;2023-03-24T18:56:23;11.40;97.30
3186;DHT22;1604;53.700;10.252;2023-03-24T18:59:27;11.30;97.30
3186;DHT22;1604;53.700;10.252;2023-03-24T19:02:30;11.30;97.30
3186;DHT22;1604;53.700;10.252;2023-03-24T19:05:32;11.30;97.30
3186;DHT22;1604;53.700;10.252;2023-03-24T19:08:35;11.30;97.40
3186;DHT22;1604;53.700;10.252;2023-03-24T19:11:40;11.20;97.50
3186;DHT22;1604;53.700;10.252;2023-03-24T19:14:43;11.20;97.60
3186;DHT22;1604;53.700;10.252;2023-03-24T19:17:45;11.20;97.80
3186;DHT22;1604;53.700;10.252;2023-03-24T19:20:53;11.10;98.00
3186;DHT22;1604;53.700;10.252;2023-03-24T19:23:56;11.00;98.40
3186;DHT22;1604;53.700;10.252;2023-03-24T19:26:58;10.90;98.60
3186;DHT22;1604;53.700;10.252;2023-03-24T19:30:02;10.90;98.70
3186;DHT22;1604;53.700;10.252;2023-03-24T19:33:04;10.80;99.00
3186;DHT22;1604;53.700;10.252;2023-03-24T19:36:07;10.80;99.20
3186;DHT22;1604;53.700;10.252;2023-03-24T19:39:10;10.70;99.50
3186;DHT22;1604;53.700;10.252;2023-03-24T19:42:14;10.60;99.70
3186;DHT22;1604;53.700;10.252;2023-03-24T19:45:20;10.60;99.80
3186;DHT22;1604;53.700;10.252;2023-03-24T19:48:22;10.50;99.90
3186;DHT22;1604;53.700;10.252;2023-03-24T19:51:24;10.50;99.90
3186;DHT22;1604;53.700;10.252;2023-03-24T19:54:26;10.40;99.90
3186;DHT22;1604;53.700;10.252;2023-03-24T19:57:28;10.40;99.90
3186;DHT22;1604;53.700;10.252;2023-03-24T20:00:33;10.30;99.90
3186;DHT22;1604;53.700;10.252;2023-03-24T20:03:35;10.20;99.90